Time;durP1;ratioP1;P1;durP2;ratioP2;P2;SDS_P1;SDS_P2;PMS_P1;PMS_P2;Temp;Humidity;BMP_temperature;BMP_pressure;BME280_temperature;BME280_humidity;BME280_pressure;Samples;Min_cycle;Max_cycle;Signal;HPM_P1;HPM_P2
2023/06/15 00:01:21;;;;;;;3.15;2.50;;;25.00;40.20;;;;;;5030698;28;20021;-65
2023/06/15 00:03:46;;;;;;;2.92;2.40;;;24.90;40.10;;;;;;5032272;28;20073;-65
2023/06/15 00:06:12;;;;;;;3.03;2.30;;;25.00;40.20;;;;;;5036772;28;20036;-65
2023/06/15 00:08:37;;;;;;;3.28;2.42;;;25.00;40.20;;;;;;5019886;28;20029;-65
2023/06/15 00:11:03;;;;;;;2.80;2.20;;;25.00;40.20;;;;;;5035274;28;20036;-65
2023/06/15 00:13:29;;;;;;;3.13;2.40;;;25.00;40.20;;;;;;5032515;28;20123;-65
2023/06/15 00:15:55;;;;;;;3.17;2.30;;;24.90;40.20;;;;;;5036352;28;20100;-65
2023/06/15 00:18:20;;;;;;;2.83;2.10;;;25.00;40.20;;;;;;5035543;28;20107;-65
2023/06/15 00:20:47;;;;;;;3.03;2.40;;;24.90;40.20;;;;;;5035887;28;20057;-65
2023/06/15 00:23:17;;;;;;;3.08;2.50;;;24.90;40.20;;;;;;5015829;28;20032;-65
2023/06/15 00:25:43;;;;;;;3.42;2.35;;;24.90;40.20;;;;;;5037065;28;20030;-65
2023/06/15 00:28:08;;;;;;;2.92;2.30;;;24.90;40.20;;;;;;5036142;28;20037;-65
2023/06/15 00:30:34;;;;;;;2.97;2.30;;;24.90;40.20;;;;;;5034356;28;20527;-65
2023/06/15 00:33:00;;;;;;;2.83;2.28;;;24.90;40.30;;;;;;5032020;28;20646;-65
2023/06/15 00:35:26;;;;;;;3.05;2.17;;;24.90;40.30;;;;;;5035697;28;20041;-65
2023/06/15 00:37:51;;;;;;;2.65;2.10;;;24.90;40.30;;;;;;5033644;28;20521;-65
2023/06/15 00:40:17;;;;;;;2.60;2.03;;;25.00;40.40;;;;;;5038181;28;20532;-65
2023/06/15 00:42:44;;;;;;;2.78;1.95;;;24.90;40.30;;;;;;5030387;28;20505;-65
2023/06/15 00:45:10;;;;;;;2.72;2.13;;;24.90;40.30;;;;;;5032790;28;20061;-65
2023/06/15 00:47:38;;;;;;;3.15;2.28;;;24.90;40.30;;;;;;5032883;28;20022;-65
2023/06/15 00:50:14;;;;;;;3.03;2.13;;;24.90;40.40;;;;;;5035555;28;20018;-65
2023/06/15 00:52:40;;;;;;;2.75;1.90;;;24.90;40.30;;;;;;5032263;28;20022;-65
2023/06/15 00:55:11;;;;;;;2.97;2.20;;;24.90;40.30;;;;;;5033645;28;20021;-65
2023/06/15 00:57:43;;;;;;;3.10;2.20;;;24.90;40.40;;;;;;5037209;28;20064;-65
2023/06/15 01:00:16;;;;;;;2.97;2.17;;;24.90;40.40;;;;;;5032034;28;20465;-65
2023/06/15 01:02:42;;;;;;;2.60;1.85;;;24.90;40.40;;;;;;5034260;28;20025;-65
2023/06/15 01:05:12;;;;;;;2.83;2.22;;;24.90;40.40;;;;;;5041672;28;20623;-65
2023/06/15 01:07:40;;;;;;;3.05;2.17;;;24.90;40.40;;;;;;5040219;28;20473;-65
2023/06/15 01:10:08;;;;;;;3.05;2.30;;;24.90;40.40;;;;;;5038476;28;20032;-65
2023/06/15 01:12:40;;;;;;;2.60;2.13;;;24.90;40.40;;;;;;5040319;28;20479;-65
2023/06/15 01:15:09;;;;;;;2.47;2.00;;;24.80;40.40;;;;;;5040010;28;20720;-65
2023/06/15 01:17:37;;;;;;;2.85;2.25;;;24.90;40.40;;;;;;5039291;28;20044;-65
2023/06/15 01:20:05;;;;;;;3.17;2.17;;;24.90;40.50;;;;;;5021091;28;20075;-66
2023/06/15 01:23:01;;;;;;;2.92;2.10;;;24.80;40.40;;;;;;5022351;28;20018;-65
2023/06/15 01:25:42;;;;;;;3.28;2.13;;;24.80;40.40;;;;;;4990942;28;20136;-66
2023/06/15 01:28:10;;;;;;;2.70;2.03;;;24.80;40.40;;;;;;5038130;28;20033;-66
2023/06/15 01:30:43;;;;;;;2.30;1.90;;;24.90;40.50;;;;;;5038939;28;20029;-65
2023/06/15 01:33:10;;;;;;;2.55;2.03;;;24.80;40.50;;;;;;5040015;28;20029;-65
2023/06/15 01:35:35;;;;;;;2.95;1.92;;;24.80;40.40;;;;;;5045778;28;20033;-65
2023/06/15 01:38:02;;;;;;;2.35;2.00;;;24.80;40.50;;;;;;5040833;28;20044;-65
2023/06/15 01:40:30;;;;;;;2.35;1.90;;;24.80;40.50;;;;;;5034843;28;20376;-65
2023/06/15 01:42:57;;;;;;;2.90;2.10;;;24.80;40.50;;;;;;5040697;28;20128;-65
2023/06/15 01:45:25;;;;;;;2.95;2.20;;;24.80;41.00;;;;;;5035598;28;20033;-65
2023/06/15 01:47:51;;;;;;;2.67;2.00;;;24.80;40.50;;;;;;5025732;28;20022;-65
2023/06/15 01:50:18;;;;;;;2.90;2.10;;;24.80;40.50;;;;;;5040964;28;20022;-65
2023/06/15 01:52:44;;;;;;;2.78;1.92;;;24.80;40.50;;;;;;5041202;28;20067;-66
2023/06/15 01:55:10;;;;;;;2.60;1.85;;;24.80;40.50;;;;;;5037767;28;20025;-65
2023/06/15 01:57:40;;;;;;;2.70;1.98;;;24.80;40.60;;;;;;5040039;28;20539;-65
2023/06/15 02:00:08;;;;;;;3.13;2.20;;;24.80;40.60;;;;;;5037413;28;20382;-65
2023/06/15 02:02:34;;;;;;;2.50;1.90;;;24.80;40.60;;;;;;5039828;28;20039;-65
2023/06/15 02:05:01;;;;;;;2.90;2.13;;;24.80;40.60;;;;;;5039001;28;20124;-65
2023/06/15 02:07:27;;;;;;;2.78;2.10;;;24.80;40.60;;;;;;5038625;28;20033;-65
2023/06/15 02:09:53;;;;;;;2.65;2.00;;;24.80;40.60;;;;;;5040411;28;20048;-65
2023/06/15 02:12:18;;;;;;;2.65;2.00;;;24.80;40.70;;;;;;5040977;28;20061;-66
2023/06/15 02:14:48;;;;;;;2.72;2.05;;;24.70;40.60;;;;;;5038750;28;20485;-65
2023/06/15 02:17:14;;;;;;;2.72;2.00;;;24.70;40.60;;;;;;5039884;28;20045;-65
2023/06/15 02:19:40;;;;;;;2.75;2.00;;;24.70;40.60;;;;;;5038572;28;20119;-65
2023/06/15 02:22:06;;;;;;;2.72;2.13;;;24.80;40.70;;;;;;5035299;28;20105;-65
2023/06/15 02:24:32;;;;;;;2.40;1.85;;;24.70;40.60;;;;;;5037557;28;20044;-65
2023/06/15 02:26:57;;;;;;;2.38;1.83;;;24.80;40.70;;;;;;5037837;28;20049;-65
2023/06/15 02:29:23;;;;;;;2.60;2.03;;;24.70;40.70;;;;;;5039959;28;20087;-65
2023/06/15 02:31:49;;;;;;;2.70;2.00;;;24.70;40.70;;;;;;5041256;28;20072;-65
2023/06/15 02:34:15;;;;;;;2.30;1.90;;;24.70;40.70;;;;;;5039029;28;20021;-65
2023/06/15 02:36:41;;;;;;;2.25;1.88;;;24.70;40.70;;;;;;5036401;28;20029;-65
2023/06/15 02:39:06;;;;;;;2.50;1.70;;;24.70;40.70;;;;;;5036437;28;20029;-65
2023/06/15 02:41:32;;;;;;;2.47;1.98;;;24.70;40.70;;;;;;5037348;28;20022;-65
2023/06/15 02:43:58;;;;;;;2.40;2.00;;;24.70;40.70;;;;;;5038377;28;20120;-66
2023/06/15 02:46:23;;;;;;;2.78;2.00;;;24.70;40.80;;;;;;5032286;28;20470;-65
2023/06/15 02:48:51;;;;;;;2.50;1.95;;;24.70;40.80;;;;;;5033641;28;20028;-65
2023/06/15 02:51:20;;;;;;;2.35;1.80;;;24.70;40.80;;;;;;5037755;28;20128;-65
2023/06/15 02:53:48;;;;;;;3.13;2.00;;;24.70;40.80;;;;;;5036486;28;20105;-65
2023/06/15 02:56:18;;;;;;;2.28;1.67;;;24.70;40.80;;;;;;5039383;28;20481;-65
2023/06/15 02:58:54;;;;;;;2.53;1.90;;;24.60;40.70;;;;;;5037579;28;20363;-65
2023/06/15 03:01:38;;;;;;;2.80;2.00;;;24.70;40.80;;;;;;5033485;28;20017;-65
2023/06/15 03:04:09;;;;;;;2.47;1.92;;;24.70;40.80;;;;;;5034592;28;20500;-65
2023/06/15 03:06:36;;;;;;;2.65;2.00;;;24.70;40.80;;;;;;5026013;28;20041;-65
2023/06/15 03:09:02;;;;;;;2.85;2.05;;;24.60;40.80;;;;;;5035185;28;20196;-65
2023/06/15 03:11:28;;;;;;;2.42;1.90;;;24.60;40.80;;;;;;5037655;28;20626;-65
2023/06/15 03:13:53;;;;;;;2.45;1.80;;;24.60;40.80;;;;;;5035004;28;20026;-65
2023/06/15 03:16:20;;;;;;;2.30;1.67;;;24.60;40.90;;;;;;5035794;28;20045;-65
2023/06/15 03:18:47;;;;;;;2.60;1.90;;;24.60;40.80;;;;;;5034936;28;20033;-65
2023/06/15 03:21:14;;;;;;;2.33;1.98;;;24.70;40.90;;;;;;5032229;28;20029;-65
2023/06/15 03:23:42;;;;;;;2.30;1.80;;;24.60;40.80;;;;;;5037823;28;20028;-65
2023/06/15 03:26:07;;;;;;;2.63;1.90;;;24.60;40.90;;;;;;5035060;28;20123;-65
2023/06/15 03:28:38;;;;;;;1.92;1.60;;;24.60;41.00;;;;;;5034696;28;20109;-65
2023/06/15 03:31:04;;;;;;;2.42;1.90;;;24.60;40.90;;;;;;5035606;28;20559;-65
2023/06/15 03:33:30;;;;;;;2.40;1.80;;;24.60;40.90;;;;;;5021685;28;20067;-66
2023/06/15 03:35:57;;;;;;;2.42;1.70;;;24.60;40.90;;;;;;5034517;28;20030;-65
2023/06/15 03:38:23;;;;;;;2.30;1.80;;;24.60;40.90;;;;;;5032109;28;20457;-65
2023/06/15 03:40:49;;;;;;;2.40;1.83;;;24.60;40.90;;;;;;5033423;28;20026;-65
2023/06/15 03:43:15;;;;;;;2.72;1.90;;;24.60;40.90;;;;;;5036435;28;20018;-65
2023/06/15 03:45:40;;;;;;;2.25;1.75;;;24.60;40.80;;;;;;5019301;28;20128;-65
2023/06/15 03:48:06;;;;;;;2.22;1.83;;;24.60;40.90;;;;;;5033083;28;20032;-65
2023/06/15 03:50:33;;;;;;;2.70;2.00;;;24.60;40.80;;;;;;5034882;28;20142;-65
2023/06/15 03:53:00;;;;;;;2.50;1.90;;;24.60;40.90;;;;;;5034456;28;20043;-65
2023/06/15 03:55:26;;;;;;;2.38;1.83;;;24.60;41.40;;;;;;5036518;28;20112;-65
2023/06/15 03:57:51;;;;;;;2.88;1.80;;;24.60;40.90;;;;;;5033155;28;20108;-65
2023/06/15 04:00:18;;;;;;;2.65;1.77;;;24.60;40.90;;;;;;5033582;28;20040;-65
2023/06/15 04:02:44;;;;;;;2.60;1.85;;;24.60;40.90;;;;;;5035082;28;20580;-66
2023/06/15 04:05:09;;;;;;;2.20;1.63;;;24.60;40.90;;;;;;5034938;28;20059;-65
2023/06/15 04:07:35;;;;;;;2.17;1.75;;;24.60;40.90;;;;;;5032403;28;20029;-65
2023/06/15 04:10:01;;;;;;;2.20;1.67;;;24.60;40.90;;;;;;5034433;28;20067;-65
2023/06/15 04:12:26;;;;;;;2.33;1.60;;;24.50;40.90;;;;;;5033762;28;20022;-65
2023/06/15 04:14:52;;;;;;;2.10;1.67;;;24.60;40.90;;;;;;5029960;28;20157;-65
2023/06/15 04:17:18;;;;;;;2.20;1.70;;;24.60;40.90;;;;;;5020162;28;20500;-65
2023/06/15 04:19:45;;;;;;;2.22;1.63;;;24.60;40.90;;;;;;5036160;28;20477;-65
2023/06/15 04:22:10;;;;;;;1.90;1.60;;;24.50;40.90;;;;;;5034408;28;20488;-65
2023/06/15 04:24:36;;;;;;;2.67;1.70;;;24.50;40.90;;;;;;5036854;28;20056;-65
2023/06/15 04:27:02;;;;;;;2.97;1.80;;;24.50;40.90;;;;;;5033766;28;20102;-66
2023/06/15 04:29:30;;;;;;;2.25;1.70;;;24.60;41.00;;;;;;5031178;28;20029;-65
2023/06/15 04:31:57;;;;;;;2.53;1.75;;;24.50;41.00;;;;;;5035031;28;20059;-65
2023/06/15 04:34:24;;;;;;;2.38;1.70;;;24.50;41.00;;;;;;5030869;28;20029;-65
2023/06/15 04:36:50;;;;;;;1.95;1.45;;;24.50;41.00;;;;;;5031576;28;20052;-65
2023/06/15 04:39:16;;;;;;;2.42;1.80;;;24.50;41.00;;;;;;5031500;28;20076;-66
2023/06/15 04:41:42;;;;;;;2.50;1.77;;;24.50;41.00;;;;;;5035964;28;20491;-65
2023/06/15 04:44:08;;;;;;;2.03;1.50;;;24.50;41.00;;;;;;5037768;28;20086;-66
2023/06/15 04:46:39;;;;;;;2.50;1.83;;;24.50;41.00;;;;;;5030276;28;20029;-65
2023/06/15 04:49:05;;;;;;;2.25;1.73;;;24.50;41.00;;;;;;5034467;28;20062;-65
2023/06/15 04:51:31;;;;;;;2.70;1.73;;;24.50;41.10;;;;;;5034432;28;20025;-65
2023/06/15 04:53:56;;;;;;;2.13;1.52;;;24.50;41.00;;;;;;5036196;28;20037;-65
2023/06/15 04:56:22;;;;;;;2.45;1.70;;;24.50;41.10;;;;;;5035308;28;20051;-65
2023/06/15 04:58:48;;;;;;;1.85;1.50;;;24.50;41.10;;;;;;5035964;28;20017;-64
2023/06/15 05:01:14;;;;;;;2.33;1.80;;;24.50;41.20;;;;;;5032826;28;20077;-67
2023/06/15 05:03:40;;;;;;;2.65;1.70;;;24.50;41.30;;;;;;5032688;28;20021;-65
2023/06/15 05:06:07;;;;;;;2.03;1.58;;;24.50;41.40;;;;;;5036970;28;20045;-65
2023/06/15 05:08:33;;;;;;;2.22;1.63;;;24.50;41.30;;;;;;5034735;28;20118;-65
2023/06/15 05:10:59;;;;;;;2.40;1.70;;;24.50;41.20;;;;;;5017214;28;20068;-65
2023/06/15 05:13:25;;;;;;;2.13;1.67;;;24.50;41.20;;;;;;5034460;28;20025;-65
2023/06/15 05:15:51;;;;;;;2.45;1.70;;;24.50;41.20;;;;;;5032460;28;20021;-65
2023/06/15 05:18:17;;;;;;;2.25;1.77;;;24.50;41.20;;;;;;5032873;28;20400;-65
2023/06/15 05:20:42;;;;;;;2.42;1.70;;;24.50;41.20;;;;;;5035127;28;20489;-65
2023/06/15 05:23:08;;;;;;;2.17;1.80;;;24.50;41.20;;;;;;5033328;28;20032;-65
2023/06/15 05:25:34;;;;;;;2.40;1.70;;;24.50;41.20;;;;;;5035566;28;20035;-65
2023/06/15 05:27:59;;;;;;;2.38;1.73;;;24.50;41.20;;;;;;5034251;28;20346;-65
2023/06/15 05:30:26;;;;;;;2.40;1.70;;;24.40;41.20;;;;;;5035713;28;20029;-65
2023/06/15 05:32:52;;;;;;;2.30;1.60;;;24.50;41.30;;;;;;5032939;28;20029;-65
2023/06/15 05:35:18;;;;;;;2.83;1.52;;;24.50;41.20;;;;;;5035144;28;20401;-65
2023/06/15 05:37:44;;;;;;;2.80;1.75;;;24.40;41.20;;;;;;5034408;28;20033;-65
2023/06/15 05:40:10;;;;;;;2.35;1.70;;;24.50;41.30;;;;;;5034133;28;20028;-65
2023/06/15 05:42:36;;;;;;;2.40;1.70;;;24.40;41.20;;;;;;5033290;28;20026;-65
2023/06/15 05:45:02;;;;;;;2.65;1.77;;;24.40;41.20;;;;;;5017967;28;20037;-65
2023/06/15 05:47:27;;;;;;;2.50;1.70;;;24.50;41.80;;;;;;5031253;28;20041;-65
2023/06/15 05:49:53;;;;;;;2.88;1.90;;;24.40;41.20;;;;;;5034739;28;20026;-65
2023/06/15 05:52:19;;;;;;;2.28;1.60;;;24.40;41.20;;;;;;5038591;28;20025;-65
2023/06/15 05:54:45;;;;;;;2.20;1.60;;;24.40;41.20;;;;;;5038220;28;20038;-65
2023/06/15 05:57:12;;;;;;;2.13;1.75;;;24.40;41.20;;;;;;5033898;28;20121;-65
2023/06/15 05:59:38;;;;;;;2.53;1.80;;;24.40;41.20;;;;;;5038252;28;20093;-65
2023/06/15 06:02:04;;;;;;;2.10;1.60;;;24.40;41.20;;;;;;5035302;28;20092;-65
2023/06/15 06:04:30;;;;;;;2.35;1.80;;;24.40;41.20;;;;;;5036580;28;20021;-65
2023/06/15 06:06:56;;;;;;;2.70;1.80;;;24.40;41.20;;;;;;5033796;28;20104;-65
2023/06/15 06:09:21;;;;;;;2.38;1.60;;;24.40;41.20;;;;;;5021842;28;20070;-65
2023/06/15 06:11:47;;;;;;;2.50;1.88;;;24.40;41.20;;;;;;5022462;28;20033;-65
2023/06/15 06:14:16;;;;;;;2.03;1.67;;;24.40;41.20;;;;;;5037572;28;20112;-65
2023/06/15 06:16:42;;;;;;;2.20;1.70;;;24.40;41.20;;;;;;5035825;28;20041;-65
2023/06/15 06:19:08;;;;;;;2.00;1.60;;;24.40;41.20;;;;;;5037193;28;20037;-65
2023/06/15 06:21:34;;;;;;;2.20;1.70;;;24.40;41.20;;;;;;5034460;28;20029;-65
2023/06/15 06:23:59;;;;;;;3.22;1.70;;;24.40;41.20;;;;;;5020978;28;20576;-65
2023/06/15 06:26:25;;;;;;;2.28;1.70;;;24.40;41.20;;;;;;5039833;28;20057;-65
2023/06/15 06:28:52;;;;;;;2.72;1.50;;;24.30;41.20;;;;;;5022168;28;20281;-65
2023/06/15 06:31:17;;;;;;;2.15;1.63;;;24.30;41.20;;;;;;5035158;28;20046;-65
2023/06/15 06:33:43;;;;;;;2.33;1.70;;;24.30;41.20;;;;;;5038058;28;20033;-65
2023/06/15 06:36:09;;;;;;;2.15;1.60;;;24.30;41.20;;;;;;5038806;28;20096;-65
2023/06/15 06:38:35;;;;;;;2.30;1.70;;;24.30;41.20;;;;;;5036736;28;20470;-65
2023/06/15 06:41:01;;;;;;;2.05;1.50;;;24.30;41.20;;;;;;5032943;28;20021;-65
2023/06/15 06:43:26;;;;;;;2.90;1.83;;;24.30;41.20;;;;;;5037102;28;20140;-65
2023/06/15 06:45:52;;;;;;;2.45;1.75;;;24.30;41.70;;;;;;5037592;28;20032;-65
2023/06/15 06:48:18;;;;;;;2.25;1.75;;;24.30;41.20;;;;;;5033595;28;20041;-65
2023/06/15 06:50:43;;;;;;;2.45;1.80;;;24.30;41.20;;;;;;5040480;28;20037;-65
2023/06/15 06:53:10;;;;;;;3.40;1.60;;;24.30;41.30;;;;;;5038482;28;20029;-65
2023/06/15 06:55:35;;;;;;;2.40;1.63;;;24.30;41.30;;;;;;5037305;28;20120;-65
2023/06/15 06:58:01;;;;;;;2.25;1.70;;;24.30;41.80;;;;;;5037066;28;20427;-65
2023/06/15 07:00:28;;;;;;;2.60;1.80;;;24.30;41.30;;;;;;5036768;28;20496;-65
2023/06/15 07:02:54;;;;;;;2.40;1.70;;;24.30;41.30;;;;;;5032629;28;20377;-65
2023/06/15 07:05:20;;;;;;;2.72;1.85;;;24.30;41.30;;;;;;5034252;28;20063;-65
2023/06/15 07:07:47;;;;;;;2.65;1.88;;;24.30;41.40;;;;;;5021139;28;20017;-65
2023/06/15 07:10:12;;;;;;;3.20;1.90;;;24.30;41.40;;;;;;5038141;28;20022;-65
2023/06/15 07:12:38;;;;;;;2.58;1.95;;;24.30;41.40;;;;;;5035082;28;20025;-65
2023/06/15 07:15:05;;;;;;;2.35;1.90;;;24.30;41.40;;;;;;5037828;28;20116;-65
2023/06/15 07:17:31;;;;;;;2.58;1.92;;;24.30;41.30;;;;;;5037357;28;20030;-65
2023/06/15 07:19:56;;;;;;;2.50;1.80;;;24.30;41.30;;;;;;5036854;28;20090;-65
2023/06/15 07:22:23;;;;;;;2.60;1.90;;;24.30;41.40;;;;;;5038466;28;20032;-65
2023/06/15 07:24:52;;;;;;;3.33;2.03;;;24.30;41.40;;;;;;5036117;28;20025;-65
2023/06/15 07:27:18;;;;;;;2.80;1.80;;;24.30;41.40;;;;;;5037295;28;20033;-65
2023/06/15 07:29:44;;;;;;;2.75;1.80;;;24.30;41.40;;;;;;5038001;28;20500;-65
2023/06/15 07:32:10;;;;;;;3.28;1.80;;;24.30;41.40;;;;;;5036314;28;20036;-64
2023/06/15 07:34:36;;;;;;;2.50;1.70;;;24.30;41.40;;;;;;5037620;28;20039;-65
2023/06/15 07:37:02;;;;;;;2.47;1.73;;;24.30;41.40;;;;;;5004488;28;20025;-65
2023/06/15 07:39:28;;;;;;;3.03;1.92;;;24.30;41.40;;;;;;5034256;28;20068;-65
2023/06/15 07:41:54;;;;;;;2.80;1.77;;;24.30;41.50;;;;;;5032556;28;20064;-64
2023/06/15 07:44:19;;;;;;;2.22;1.70;;;24.30;41.40;;;;;;5036158;28;20053;-65
2023/06/15 07:46:45;;;;;;;2.80;1.77;;;24.30;41.50;;;;;;5036494;28;20037;-65
2023/06/15 07:49:10;;;;;;;2.58;1.80;;;24.20;41.40;;;;;;5035456;28;20503;-65
2023/06/15 07:51:36;;;;;;;2.80;1.85;;;24.20;41.40;;;;;;5029685;28;20031;-65
2023/06/15 07:54:02;;;;;;;2.70;1.90;;;24.30;42.10;;;;;;5032968;28;20056;-65
2023/06/15 07:56:28;;;;;;;3.28;1.98;;;24.30;41.50;;;;;;5035333;28;20059;-65
2023/06/15 07:58:53;;;;;;;2.55;1.88;;;24.30;41.50;;;;;;5037978;28;20033;-65
2023/06/15 08:01:19;;;;;;;2.20;1.70;;;24.30;41.60;;;;;;5037797;28;20035;-65
2023/06/15 08:03:45;;;;;;;3.35;1.70;;;24.30;41.50;;;;;;5034971;28;20053;-65
2023/06/15 08:06:11;;;;;;;2.58;1.90;;;24.20;41.50;;;;;;5039874;28;20361;-65
2023/06/15 08:08:37;;;;;;;2.30;1.67;;;24.20;41.50;;;;;;5035620;28;20558;-65
2023/06/15 08:11:05;;;;;;;2.88;1.90;;;24.20;41.50;;;;;;5018812;28;20052;-65
2023/06/15 08:13:33;;;;;;;2.60;1.80;;;24.20;41.60;;;;;;5033785;28;20105;-64
2023/06/15 08:15:59;;;;;;;2.50;1.67;;;24.30;41.60;;;;;;5033885;28;20025;-65
2023/06/15 08:18:26;;;;;;;2.90;1.90;;;24.20;41.60;;;;;;5035648;28;20036;-65
2023/06/15 08:20:52;;;;;;;2.58;1.60;;;24.20;41.60;;;;;;5036220;28;20017;-65
2023/06/15 08:23:18;;;;;;;2.90;1.80;;;24.20;41.60;;;;;;5034485;28;20096;-65
2023/06/15 08:25:43;;;;;;;2.53;1.60;;;24.20;41.60;;;;;;5035476;28;20083;-65
2023/06/15 08:28:09;;;;;;;2.90;1.85;;;24.20;41.60;;;;;;5037480;28;20029;-65
2023/06/15 08:30:35;;;;;;;2.13;1.60;;;24.20;41.60;;;;;;5035540;28;20033;-65
2023/06/15 08:33:01;;;;;;;2.20;1.70;;;24.20;41.60;;;;;;5036834;28;20029;-65
2023/06/15 08:35:27;;;;;;;2.60;1.80;;;24.20;41.60;;;;;;5036052;28;20021;-65
2023/06/15 08:37:52;;;;;;;2.47;1.60;;;24.20;41.60;;;;;;5038377;28;20057;-65
2023/06/15 08:40:19;;;;;;;2.70;1.80;;;24.20;41.60;;;;;;5039632;28;20385;-64
2023/06/15 08:42:45;;;;;;;2.53;1.70;;;24.20;41.60;;;;;;5034659;28;20097;-65
2023/06/15 08:45:11;;;;;;;2.55;1.80;;;24.20;41.60;;;;;;5033979;28;20069;-64
2023/06/15 08:47:38;;;;;;;2.70;1.80;;;24.20;41.60;;;;;;5034482;28;20159;-64
2023/06/15 08:50:06;;;;;;;2.60;1.63;;;24.20;41.70;;;;;;5035210;28;20025;-65
2023/06/15 08:52:35;;;;;;;2.65;1.88;;;24.20;41.60;;;;;;5035886;28;20332;-65
2023/06/15 08:55:02;;;;;;;2.53;1.60;;;24.20;41.60;;;;;;5034670;28;20330;-65
2023/06/15 08:57:35;;;;;;;2.47;1.67;;;24.20;41.60;;;;;;5019182;28;20052;-64
2023/06/15 09:00:05;;;;;;;2.33;1.75;;;24.20;41.70;;;;;;5035715;28;20026;-65
2023/06/15 09:02:33;;;;;;;2.40;1.70;;;24.20;41.70;;;;;;5035077;28;20021;-64
2023/06/15 09:04:58;;;;;;;2.45;1.67;;;24.20;41.70;;;;;;5035413;28;20052;-65
2023/06/15 09:07:24;;;;;;;2.33;1.52;;;24.20;41.70;;;;;;5034891;28;20029;-65
2023/06/15 09:10:15;;;;;;;2.50;1.63;;;24.20;41.70;;;;;;5035757;28;20032;-65
2023/06/15 09:12:43;;;;;;;2.38;1.80;;;24.20;41.70;;;;;;5033249;28;20056;-64
2023/06/15 09:15:12;;;;;;;2.33;1.85;;;24.20;41.70;;;;;;5032542;28;20104;-65
2023/06/15 09:17:41;;;;;;;2.30;1.67;;;24.20;41.70;;;;;;5035608;28;20032;-65
2023/06/15 09:20:07;;;;;;;2.30;1.67;;;24.20;41.70;;;;;;5035527;28;20030;-65
2023/06/15 09:22:42;;;;;;;2.60;1.83;;;24.20;41.70;;;;;;5032943;28;20255;-65
2023/06/15 09:25:21;;;;;;;2.33;1.70;;;24.20;41.70;;;;;;5034533;28;20078;-65
2023/06/15 09:27:57;;;;;;;2.38;1.75;;;24.20;41.80;;;;;;5036496;28;20025;-65
2023/06/15 09:30:43;;;;;;;2.25;1.63;;;24.20;41.80;;;;;;5038111;28;20083;-64
2023/06/15 09:33:17;;;;;;;2.10;1.55;;;24.20;41.80;;;;;;5037048;28;20021;-65
2023/06/15 09:36:05;;;;;;;2.55;1.77;;;24.20;41.80;;;;;;5022228;28;20072;-65
2023/06/15 09:38:42;;;;;;;2.70;1.73;;;24.20;41.80;;;;;;5037856;28;20141;-64
2023/06/15 09:41:09;;;;;;;3.25;1.73;;;24.20;41.80;;;;;;5036819;28;20476;-64
2023/06/15 09:43:36;;;;;;;2.55;1.90;;;24.20;41.80;;;;;;5037808;28;20024;-65
2023/06/15 09:46:04;;;;;;;2.38;1.60;;;24.20;41.80;;;;;;5038200;28;20079;-65
2023/06/15 09:48:30;;;;;;;2.47;1.80;;;24.20;41.80;;;;;;5038934;28;20032;-64
2023/06/15 09:51:03;;;;;;;2.63;1.90;;;24.20;41.80;;;;;;5022457;28;20167;-64
2023/06/15 09:53:32;;;;;;;2.83;1.80;;;24.20;41.80;;;;;;5036812;28;20057;-65
2023/06/15 09:55:59;;;;;;;2.20;1.58;;;24.20;41.80;;;;;;5035813;28;20056;-64
2023/06/15 09:58:25;;;;;;;1.67;1.45;;;24.20;41.80;;;;;;5034283;28;20436;-65
2023/06/15 10:00:57;;;;;;;2.38;1.80;;;24.20;41.80;;;;;;5036460;28;20045;-65
2023/06/15 10:03:24;;;;;;;2.20;1.60;;;24.20;41.80;;;;;;5039424;28;20021;-65
2023/06/15 10:05:54;;;;;;;2.25;1.65;;;24.20;41.80;;;;;;5021572;28;20433;-64
2023/06/15 10:08:26;;;;;;;2.60;1.80;;;24.20;41.80;;;;;;5039227;28;20088;-65
2023/06/15 10:10:55;;;;;;;3.15;1.80;;;24.20;41.80;;;;;;5038286;28;20136;-65
2023/06/15 10:13:41;;;;;;;2.67;1.67;;;24.20;41.80;;;;;;5023070;28;20481;-64
2023/06/15 10:16:11;;;;;;;2.63;1.80;;;24.20;41.80;;;;;;5038881;28;20640;-64
2023/06/15 10:18:36;;;;;;;2.28;1.70;;;24.20;41.80;;;;;;5037020;28;20035;-65
2023/06/15 10:21:05;;;;;;;2.38;1.70;;;24.20;41.80;;;;;;5037094;28;20100;-65
2023/06/15 10:23:32;;;;;;;2.30;1.60;;;24.20;41.80;;;;;;5038784;28;20414;-65
2023/06/15 10:25:58;;;;;;;1.90;1.50;;;24.20;41.90;;;;;;5038512;28;20475;-65
2023/06/15 10:28:26;;;;;;;2.55;1.70;;;24.20;41.80;;;;;;5039621;28;20435;-65
2023/06/15 10:31:10;;;;;;;2.63;1.60;;;24.20;41.90;;;;;;5040336;28;20532;-64
2023/06/15 10:33:41;;;;;;;2.05;1.60;;;24.20;41.90;;;;;;5036185;28;20029;-64
2023/06/15 10:36:24;;;;;;;2.00;1.60;;;24.20;41.90;;;;;;5032553;28;20485;-65
2023/06/15 10:39:11;;;;;;;2.55;1.60;;;24.20;41.90;;;;;;5037991;28;20070;-65
2023/06/15 10:41:36;;;;;;;2.17;1.48;;;24.20;41.90;;;;;;5036017;28;20361;-64
2023/06/15 10:44:05;;;;;;;2.33;1.58;;;24.20;41.90;;;;;;5041126;28;20025;-64
2023/06/15 10:46:33;;;;;;;2.45;1.60;;;24.20;41.90;;;;;;5036831;28;20034;-64
2023/06/15 10:49:07;;;;;;;2.38;1.67;;;24.20;41.90;;;;;;5035349;28;20079;-64
2023/06/15 10:51:38;;;;;;;2.38;1.63;;;24.20;41.90;;;;;;5036706;28;20132;-65
2023/06/15 10:54:05;;;;;;;1.88;1.45;;;24.20;41.90;;;;;;5034703;28;20505;-65
2023/06/15 10:56:31;;;;;;;2.33;1.40;;;24.20;41.90;;;;;;5035733;28;20032;-64
2023/06/15 10:59:07;;;;;;;1.90;1.40;;;24.20;41.90;;;;;;5040208;28;20392;-65
2023/06/15 11:01:33;;;;;;;2.13;1.40;;;24.20;41.90;;;;;;5037453;28;20032;-65
2023/06/15 11:04:29;;;;;;;2.10;1.50;;;24.20;41.80;;;;;;5036805;28;20018;-65
2023/06/15 11:06:56;;;;;;;1.73;1.30;;;24.20;41.90;;;;;;5037213;28;20033;-65
2023/06/15 11:09:24;;;;;;;1.73;1.38;;;24.20;41.90;;;;;;5034710;28;20353;-64
2023/06/15 11:11:50;;;;;;;2.50;1.48;;;24.20;41.90;;;;;;5038951;28;20022;-65
2023/06/15 11:14:19;;;;;;;2.20;1.50;;;24.20;41.90;;;;;;5039318;28;20036;-64
2023/06/15 11:16:45;;;;;;;1.90;1.48;;;24.20;41.90;;;;;;5033583;28;20060;-64
2023/06/15 11:19:14;;;;;;;2.00;1.30;;;24.20;42.00;;;;;;5034284;28;20087;-64
2023/06/15 11:21:50;;;;;;;2.53;1.67;;;24.20;42.00;;;;;;5034192;28;20021;-64
2023/06/15 11:24:19;;;;;;;2.05;1.40;;;24.20;42.00;;;;;;5032695;28;20260;-64
2023/06/15 11:26:48;;;;;;;2.00;1.40;;;24.20;42.60;;;;;;5036444;28;20037;-64
2023/06/15 11:29:22;;;;;;;2.17;1.45;;;24.20;42.10;;;;;;5035552;28;20040;-64
2023/06/15 11:31:59;;;;;;;3.67;1.63;;;24.20;42.10;;;;;;5038925;28;20507;-64
2023/06/15 11:34:25;;;;;;;2.63;1.85;;;24.20;42.60;;;;;;5035543;28;20068;-65
2023/06/15 11:36:51;;;;;;;1.88;1.38;;;24.20;42.10;;;;;;5034140;28;20061;-65
2023/06/15 11:39:23;;;;;;;2.10;1.50;;;24.20;42.20;;;;;;5035670;28;20090;-64
2023/06/15 11:41:49;;;;;;;1.80;1.40;;;24.20;42.20;;;;;;5035336;28;20029;-64
2023/06/15 11:44:15;;;;;;;3.33;1.60;;;24.30;42.20;;;;;;5035360;28;20056;-65
2023/06/15 11:46:41;;;;;;;2.00;1.48;;;24.30;42.20;;;;;;5033793;28;20025;-64
2023/06/15 11:49:12;;;;;;;2.20;1.60;;;24.20;42.20;;;;;;5037619;28;20024;-64
2023/06/15 11:51:46;;;;;;;2.35;1.60;;;24.30;42.30;;;;;;5032486;28;20053;-64
2023/06/15 11:54:13;;;;;;;2.03;1.40;;;24.20;42.20;;;;;;5038688;28;20473;-65
2023/06/15 11:56:48;;;;;;;2.65;1.63;;;24.30;42.30;;;;;;5033944;28;20053;-65
2023/06/15 11:59:17;;;;;;;2.22;1.60;;;24.20;42.30;;;;;;5034395;28;20130;-65
2023/06/15 12:01:44;;;;;;;2.10;1.55;;;24.20;42.40;;;;;;5037415;28;20200;-65
2023/06/15 12:04:13;;;;;;;2.40;1.70;;;24.30;42.50;;;;;;5035513;28;20112;-65
2023/06/15 12:06:42;;;;;;;2.15;1.50;;;24.30;42.60;;;;;;5035628;28;20429;-64
2023/06/15 12:09:09;;;;;;;2.70;1.70;;;24.20;42.60;;;;;;5035965;28;20461;-64
2023/06/15 12:11:35;;;;;;;2.35;1.58;;;24.30;42.70;;;;;;5033688;28;20059;-65
2023/06/15 12:14:12;;;;;;;2.20;1.80;;;24.30;42.80;;;;;;5035380;28;20024;-64
2023/06/15 12:16:38;;;;;;;2.55;1.70;;;24.30;43.00;;;;;;5033779;28;20584;-65
2023/06/15 12:19:09;;;;;;;2.00;1.42;;;24.30;43.00;;;;;;5033132;28;20460;-65
2023/06/15 12:21:39;;;;;;;2.20;1.70;;;24.30;43.00;;;;;;5035767;28;20108;-64
2023/06/15 12:24:16;;;;;;;3.30;1.65;;;24.30;43.00;;;;;;5036689;28;20035;-64
2023/06/15 12:26:52;;;;;;;2.67;1.85;;;24.30;43.00;;;;;;5037474;28;20029;-64
2023/06/15 12:29:20;;;;;;;2.55;1.77;;;24.30;43.00;;;;;;5035602;28;20501;-65
2023/06/15 12:31:50;;;;;;;2.35;1.70;;;24.30;43.10;;;;;;5033548;28;20017;-64
2023/06/15 12:34:21;;;;;;;2.30;1.60;;;24.30;43.10;;;;;;5031746;28;20389;-64
2023/06/15 12:36:49;;;;;;;2.60;1.80;;;24.30;43.00;;;;;;5035002;28;20029;-65
2023/06/15 12:39:15;;;;;;;2.40;1.70;;;24.30;43.00;;;;;;5032671;28;20029;-64
2023/06/15 12:41:42;;;;;;;2.05;1.52;;;24.30;43.00;;;;;;5030359;28;20021;-64
2023/06/15 12:44:08;;;;;;;2.63;1.80;;;24.30;43.00;;;;;;5035138;28;20033;-64
2023/06/15 12:46:38;;;;;;;2.25;1.58;;;24.30;43.00;;;;;;5034281;28;20115;-64
2023/06/15 12:49:07;;;;;;;2.38;1.67;;;24.30;42.90;;;;;;5033967;28;20102;-65
2023/06/15 12:51:34;;;;;;;2.28;1.70;;;24.30;42.90;;;;;;5034018;28;20568;-64